Time;durP1;ratioP1;P1;durP2;ratioP2;P2;SDS_P1;SDS_P2;PMS_P1;PMS_P2;Temp;Humidity;BMP_temperature;BMP_pressure;BME280_temperature;BME280_humidity;BME280_pressure;Samples;Min_cycle;Max_cycle;Signal;HPM_P1;HPM_P2
2023/07/31 00:02:20;;;;;;;1.85;1.20;;;21.20;63.00;;;;;;5052715;28;20647;-63
2023/07/31 00:04:46;;;;;;;2.20;1.35;;;21.30;63.10;;;;;;5051846;28;20277;-63
2023/07/31 00:07:11;;;;;;;3.53;1.50;;;21.30;63.90;;;;;;5052616;28;20305;-62
2023/07/31 00:09:37;;;;;;;1.58;1.05;;;21.30;63.20;;;;;;5052652;28;20650;-62
2023/07/31 00:12:03;;;;;;;2.50;1.40;;;21.30;63.20;;;;;;5051747;28;20194;-60
2023/07/31 00:14:28;;;;;;;1.75;1.30;;;21.20;63.20;;;;;;5052767;28;20244;-61
2023/07/31 00:16:54;;;;;;;2.35;1.05;;;21.20;63.20;;;;;;5052401;28;20175;-61
2023/07/31 00:19:19;;;;;;;1.15;1.05;;;21.20;63.20;;;;;;5051630;28;20186;-61
2023/07/31 00:21:45;;;;;;;1.95;1.40;;;21.20;63.20;;;;;;5052692;28;20207;-61
2023/07/31 00:24:10;;;;;;;1.23;1.13;;;21.20;63.30;;;;;;5052475;28;20245;-61
2023/07/31 00:26:36;;;;;;;1.85;1.10;;;21.20;63.40;;;;;;5051844;28;20582;-61
2023/07/31 00:29:01;;;;;;;1.33;1.20;;;21.20;63.30;;;;;;5052210;28;20177;-61
2023/07/31 00:31:27;;;;;;;1.65;1.10;;;21.20;63.40;;;;;;5052468;28;20576;-62
2023/07/31 00:33:52;;;;;;;2.05;1.27;;;21.20;63.40;;;;;;5051556;28;20525;-62
2023/07/31 00:36:18;;;;;;;1.63;1.40;;;21.20;63.40;;;;;;5051911;28;20296;-63
2023/07/31 00:38:44;;;;;;;1.20;1.00;;;21.20;63.50;;;;;;5052478;28;20182;-62
2023/07/31 00:41:09;;;;;;;2.55;1.50;;;21.10;63.30;;;;;;5050985;28;20683;-62
2023/07/31 00:43:35;;;;;;;1.95;1.30;;;21.20;63.50;;;;;;5052509;28;20182;-62
2023/07/31 00:46:00;;;;;;;1.92;1.30;;;21.10;63.40;;;;;;5052256;28;20240;-62
2023/07/31 00:48:26;;;;;;;0.98;0.90;;;21.10;63.40;;;;;;5051604;28;20552;-62
2023/07/31 00:50:51;;;;;;;1.15;1.05;;;21.10;63.50;;;;;;5050989;28;20179;-62
2023/07/31 00:53:17;;;;;;;1.40;1.10;;;21.10;63.50;;;;;;5052099;28;20269;-61
2023/07/31 00:55:43;;;;;;;1.20;1.10;;;21.10;63.60;;;;;;5051662;28;20579;-62
2023/07/31 00:58:08;;;;;;;1.70;1.35;;;21.10;63.60;;;;;;5051801;28;20171;-61
2023/07/31 01:00:34;;;;;;;1.00;0.90;;;21.10;63.60;;;;;;5051488;28;20171;-62
2023/07/31 01:03:00;;;;;;;3.20;1.20;;;21.10;63.60;;;;;;5051784;28;20189;-62
2023/07/31 01:05:47;;;;;;;1.13;1.02;;;21.10;63.60;;;;;;5052254;28;20213;-62
2023/07/31 01:08:19;;;;;;;1.33;1.23;;;21.10;63.70;;;;;;5050045;28;20167;-62
2023/07/31 01:10:48;;;;;;;1.35;1.08;;;21.10;63.70;;;;;;5034621;28;20259;-62
2023/07/31 01:13:15;;;;;;;1.48;1.00;;;21.10;63.90;;;;;;5034255;28;20179;-61
2023/07/31 01:15:40;;;;;;;1.70;1.48;;;21.10;63.90;;;;;;5051450;28;20225;-61
2023/07/31 01:18:06;;;;;;;1.73;1.40;;;21.10;63.90;;;;;;5051910;28;20175;-61
2023/07/31 01:20:31;;;;;;;2.22;1.35;;;21.00;64.00;;;;;;5052168;28;20171;-61
2023/07/31 01:23:23;;;;;;;2.13;1.40;;;21.00;64.00;;;;;;5050937;28;20624;-62
2023/07/31 01:26:04;;;;;;;2.47;1.80;;;21.10;64.10;;;;;;5050709;28;20269;-61
2023/07/31 01:28:37;;;;;;;2.35;1.98;;;21.00;64.10;;;;;;5053920;28;20178;-61
2023/07/31 01:31:02;;;;;;;2.05;1.52;;;21.00;64.10;;;;;;5054804;28;20182;-61
2023/07/31 01:33:28;;;;;;;2.55;1.90;;;21.00;64.10;;;;;;5054441;28;20175;-62
2023/07/31 01:35:54;;;;;;;3.53;2.10;;;21.00;64.20;;;;;;5053679;28;20171;-62
2023/07/31 01:38:22;;;;;;;3.40;1.98;;;21.00;64.10;;;;;;5037275;28;20173;-62
2023/07/31 01:40:52;;;;;;;2.78;1.73;;;21.00;64.10;;;;;;5055345;28;20245;-62
2023/07/31 01:43:17;;;;;;;2.90;2.13;;;21.00;64.20;;;;;;5054467;28;20245;-61
2023/07/31 01:45:43;;;;;;;2.47;2.13;;;21.00;64.30;;;;;;5055500;28;20572;-61
2023/07/31 01:48:08;;;;;;;3.17;2.22;;;21.00;64.30;;;;;;5055102;28;20182;-61
2023/07/31 01:50:34;;;;;;;3.47;2.35;;;21.00;64.30;;;;;;5054399;28;20167;-62
2023/07/31 01:52:59;;;;;;;3.22;2.22;;;21.00;64.30;;;;;;5054922;28;20171;-61
2023/07/31 01:55:25;;;;;;;3.25;2.40;;;21.00;64.30;;;;;;5055368;28;20175;-61
2023/07/31 01:57:52;;;;;;;3.67;2.65;;;21.00;64.40;;;;;;5054579;28;20199;-61
2023/07/31 02:00:17;;;;;;;3.85;2.42;;;21.00;64.40;;;;;;5054886;28;20279;-62
2023/07/31 02:02:43;;;;;;;5.80;2.80;;;21.00;64.40;;;;;;5055047;28;20681;-62
2023/07/31 02:05:09;;;;;;;3.28;2.35;;;21.00;64.50;;;;;;5053804;28;20175;-62
2023/07/31 02:07:34;;;;;;;5.18;2.45;;;21.00;64.40;;;;;;5054807;28;20257;-62
2023/07/31 02:10:00;;;;;;;5.25;2.95;;;21.00;64.50;;;;;;5054722;28;20568;-62
2023/07/31 02:12:25;;;;;;;5.70;2.95;;;21.00;64.60;;;;;;5054332;28;20177;-61
2023/07/31 02:14:51;;;;;;;3.40;3.10;;;21.00;64.50;;;;;;5055018;28;20644;-61
2023/07/31 02:17:17;;;;;;;7.25;3.50;;;21.00;64.60;;;;;;5055025;28;20642;-61
2023/07/31 02:19:42;;;;;;;7.18;3.03;;;21.00;64.60;;;;;;5054173;28;20710;-61
2023/07/31 02:22:08;;;;;;;4.80;3.13;;;21.00;64.60;;;;;;5054253;28;20568;-61
2023/07/31 02:24:33;;;;;;;5.88;3.13;;;21.00;64.60;;;;;;5054570;28;20167;-61
2023/07/31 02:26:59;;;;;;;7.22;3.53;;;21.00;64.60;;;;;;5053532;28;20183;-61
2023/07/31 02:29:24;;;;;;;5.68;3.33;;;21.00;64.60;;;;;;5054668;28;20168;-61
2023/07/31 02:31:50;;;;;;;5.32;3.10;;;20.90;64.50;;;;;;5054506;28;20177;-62
2023/07/31 02:34:16;;;;;;;6.10;3.25;;;21.00;64.70;;;;;;5053789;28;20601;-62
2023/07/31 02:36:41;;;;;;;5.85;3.58;;;21.00;64.70;;;;;;5054297;28;20183;-63
2023/07/31 02:39:07;;;;;;;5.45;3.40;;;20.90;64.50;;;;;;5053503;28;20216;-62
2023/07/31 02:41:32;;;;;;;7.75;3.50;;;20.90;65.40;;;;;;5053995;28;20234;-62
2023/07/31 02:43:58;;;;;;;5.40;3.33;;;21.00;64.70;;;;;;5054030;28;20174;-61
2023/07/31 02:46:24;;;;;;;4.72;3.38;;;20.90;64.70;;;;;;5053659;28;20689;-62
2023/07/31 02:48:50;;;;;;;6.45;3.83;;;21.00;65.60;;;;;;5054322;28;20174;-61
2023/07/31 02:51:16;;;;;;;4.30;3.28;;;20.90;64.70;;;;;;5054107;28;20194;-62
2023/07/31 02:53:41;;;;;;;6.63;3.50;;;20.90;64.70;;;;;;5053789;28;20538;-62
2023/07/31 02:56:10;;;;;;;4.63;3.42;;;20.90;65.60;;;;;;5053951;28;20649;-61
2023/07/31 02:58:35;;;;;;;6.25;3.45;;;20.90;64.80;;;;;;5054151;28;20182;-61
2023/07/31 03:01:01;;;;;;;6.00;3.67;;;20.90;64.80;;;;;;5052966;28;20554;-62
2023/07/31 03:03:27;;;;;;;3.83;2.72;;;20.90;64.80;;;;;;5053920;28;20548;-62
2023/07/31 03:05:53;;;;;;;5.55;3.35;;;20.90;64.90;;;;;;5054031;28;20183;-62
2023/07/31 03:08:18;;;;;;;6.15;4.32;;;20.90;64.90;;;;;;5052712;28;20167;-61
2023/07/31 03:10:44;;;;;;;7.00;3.30;;;20.90;65.00;;;;;;5053883;28;20183;-61
2023/07/31 03:13:09;;;;;;;4.97;3.47;;;20.90;64.90;;;;;;5053694;28;20643;-60
2023/07/31 03:15:35;;;;;;;5.95;3.65;;;20.90;64.80;;;;;;5053021;28;20193;-60
2023/07/31 03:18:00;;;;;;;6.25;3.58;;;20.90;64.80;;;;;;5053411;28;20267;-59
2023/07/31 03:20:26;;;;;;;4.05;3.35;;;20.90;64.90;;;;;;5053454;28;20178;-59
2023/07/31 03:22:51;;;;;;;5.82;3.78;;;20.90;64.80;;;;;;5052922;28;20218;-62
2023/07/31 03:25:17;;;;;;;4.93;3.20;;;20.90;64.80;;;;;;5053311;28;20175;-61
2023/07/31 03:27:42;;;;;;;5.93;3.60;;;20.90;64.90;;;;;;5053528;28;20175;-61
2023/07/31 03:30:08;;;;;;;4.88;3.53;;;20.90;64.90;;;;;;5052318;28;20544;-62
2023/07/31 03:32:34;;;;;;;5.45;3.85;;;20.90;64.80;;;;;;5053629;28;20168;-62
2023/07/31 03:35:00;;;;;;;6.68;3.83;;;20.90;64.80;;;;;;5052983;28;20213;-63
2023/07/31 03:37:26;;;;;;;5.32;3.20;;;20.90;64.90;;;;;;5052526;28;20618;-63
2023/07/31 03:39:51;;;;;;;6.20;4.00;;;20.90;64.90;;;;;;5053386;28;20183;-62
2023/07/31 03:42:17;;;;;;;5.72;3.88;;;20.90;64.90;;;;;;5052561;28;20725;-62
2023/07/31 03:44:42;;;;;;;6.70;4.18;;;20.90;64.90;;;;;;5052589;28;20530;-62
2023/07/31 03:47:08;;;;;;;6.72;3.70;;;20.90;64.90;;;;;;5052760;28;20248;-62
2023/07/31 03:49:33;;;;;;;5.18;3.53;;;20.90;65.00;;;;;;5052214;28;20175;-61
2023/07/31 03:51:59;;;;;;;5.55;3.70;;;20.80;64.90;;;;;;5052441;28;20179;-61
2023/07/31 03:54:25;;;;;;;9.00;4.75;;;20.90;65.10;;;;;;5053205;28;20593;-61
2023/07/31 03:56:50;;;;;;;7.07;4.28;;;20.80;65.00;;;;;;5052357;28;20661;-62
2023/07/31 03:59:16;;;;;;;6.53;3.88;;;20.90;65.10;;;;;;5052613;28;20510;-62
2023/07/31 04:01:41;;;;;;;6.88;4.03;;;20.80;64.90;;;;;;5052932;28;20285;-63
2023/07/31 04:04:07;;;;;;;5.90;3.95;;;20.80;65.00;;;;;;5051824;28;20703;-62
2023/07/31 04:06:32;;;;;;;5.43;3.70;;;20.80;65.00;;;;;;5052908;28;20167;-62
2023/07/31 04:08:58;;;;;;;5.72;3.90;;;20.80;64.90;;;;;;5052641;28;20602;-61
2023/07/31 04:11:23;;;;;;;7.07;4.25;;;20.80;65.00;;;;;;5052386;28;20179;-62
2023/07/31 04:13:49;;;;;;;5.72;4.10;;;20.80;64.90;;;;;;5052839;28;20175;-61
2023/07/31 04:16:14;;;;;;;6.32;4.30;;;20.80;65.00;;;;;;5052363;28;20622;-61
2023/07/31 04:18:40;;;;;;;7.85;3.78;;;20.80;65.00;;;;;;5051780;28;20178;-61
2023/07/31 04:21:05;;;;;;;6.68;3.80;;;20.80;65.00;;;;;;5052149;28;20203;-61
2023/07/31 04:23:31;;;;;;;7.15;4.30;;;20.80;65.00;;;;;;5052646;28;20171;-62
2023/07/31 04:25:57;;;;;;;7.53;3.95;;;20.80;65.00;;;;;;5051352;28;20167;-61
2023/07/31 04:28:22;;;;;;;4.82;3.72;;;20.80;65.00;;;;;;5052438;28;20187;-61
2023/07/31 04:30:48;;;;;;;7.55;4.82;;;20.80;65.00;;;;;;5052492;28;20712;-62
2023/07/31 04:33:13;;;;;;;6.22;4.03;;;20.80;65.00;;;;;;5051432;28;20325;-63
2023/07/31 04:35:39;;;;;;;10.60;4.55;;;20.80;65.10;;;;;;5052310;28;20171;-64
2023/07/31 04:38:04;;;;;;;6.05;4.38;;;20.80;65.00;;;;;;5051947;28;20179;-63
2023/07/31 04:40:30;;;;;;;4.45;3.50;;;20.80;65.00;;;;;;5051320;28;20180;-62
2023/07/31 04:42:55;;;;;;;6.57;3.95;;;20.80;65.00;;;;;;5051983;28;20222;-61
2023/07/31 04:45:21;;;;;;;6.40;4.28;;;20.80;65.00;;;;;;5052179;28;20645;-60
2023/07/31 04:47:47;;;;;;;6.15;3.72;;;20.80;65.00;;;;;;5051405;28;20179;-61
2023/07/31 04:50:12;;;;;;;6.50;4.28;;;20.80;65.00;;;;;;5051760;28;20262;-61
2023/07/31 04:52:38;;;;;;;5.50;4.10;;;20.80;65.00;;;;;;5052361;28;20171;-61
2023/07/31 04:55:03;;;;;;;4.97;4.00;;;20.80;65.00;;;;;;5051287;28;20179;-61
2023/07/31 04:57:29;;;;;;;6.57;4.25;;;20.80;65.00;;;;;;5052362;28;20189;-62
2023/07/31 04:59:54;;;;;;;6.57;4.22;;;20.80;65.10;;;;;;5051480;28;20201;-61
2023/07/31 05:02:20;;;;;;;7.80;4.22;;;20.80;65.10;;;;;;5051871;28;20203;-62
2023/07/31 05:04:46;;;;;;;8.18;4.90;;;20.80;65.10;;;;;;5056470;28;20167;-62
2023/07/31 05:07:11;;;;;;;7.40;4.70;;;20.80;65.10;;;;;;5055269;28;20181;-62
2023/07/31 05:09:39;;;;;;;7.88;4.78;;;20.70;65.80;;;;;;5055990;28;20627;-61
2023/07/31 05:12:05;;;;;;;7.05;4.68;;;20.70;65.00;;;;;;5055769;28;20277;-61
2023/07/31 05:14:31;;;;;;;6.40;4.32;;;20.70;64.90;;;;;;5055174;28;20194;-61
2023/07/31 05:16:56;;;;;;;6.00;4.40;;;20.80;65.00;;;;;;5055556;28;20519;-61
2023/07/31 05:19:22;;;;;;;6.35;4.05;;;20.80;65.10;;;;;;5056047;28;20170;-61
2023/07/31 05:21:47;;;;;;;8.57;4.60;;;20.80;65.00;;;;;;5055170;28;20214;-61
2023/07/31 05:24:13;;;;;;;7.47;4.53;;;20.70;65.80;;;;;;5055539;28;20178;-61
2023/07/31 05:26:38;;;;;;;5.65;4.07;;;20.80;65.00;;;;;;5055776;28;20187;-61
2023/07/31 05:29:04;;;;;;;7.90;4.63;;;20.80;65.10;;;;;;5054672;28;20194;-61
2023/07/31 05:31:32;;;;;;;7.53;4.55;;;20.70;64.90;;;;;;5055725;28;20313;-62
2023/07/31 05:33:57;;;;;;;7.28;4.85;;;20.80;65.00;;;;;;5055253;28;20183;-62
2023/07/31 05:36:23;;;;;;;7.93;4.28;;;20.80;65.10;;;;;;5054726;28;20191;-63
2023/07/31 05:38:48;;;;;;;8.18;4.63;;;20.80;65.00;;;;;;5055566;28;20262;-62
2023/07/31 05:41:14;;;;;;;5.68;4.30;;;20.70;65.00;;;;;;5055132;28;20235;-62
2023/07/31 05:43:39;;;;;;;8.40;4.25;;;20.80;65.10;;;;;;5054829;28;20174;-61
2023/07/31 05:46:06;;;;;;;9.25;5.15;;;20.80;65.10;;;;;;5055104;28;20175;-61
2023/07/31 05:48:33;;;;;;;6.20;4.13;;;20.70;65.90;;;;;;5055323;28;20602;-61
2023/07/31 05:50:59;;;;;;;6.88;4.60;;;20.70;65.10;;;;;;5054328;28;20695;-60
2023/07/31 05:53:25;;;;;;;9.65;4.70;;;20.80;65.10;;;;;;5054030;28;20179;-60
2023/07/31 05:55:50;;;;;;;8.60;4.55;;;20.70;65.10;;;;;;5055375;28;20207;-61
2023/07/31 05:58:16;;;;;;;6.07;3.78;;;20.70;65.00;;;;;;5054135;28;20175;-61
2023/07/31 06:00:41;;;;;;;8.88;4.78;;;20.70;65.10;;;;;;5055076;28;20240;-62
2023/07/31 06:03:07;;;;;;;6.13;4.28;;;20.70;65.00;;;;;;5053896;28;20305;-61
2023/07/31 06:05:32;;;;;;;6.90;4.47;;;20.70;65.00;;;;;;5054928;28;20258;-62
2023/07/31 06:07:58;;;;;;;6.80;3.88;;;20.70;65.10;;;;;;5054778;28;20179;-61
2023/07/31 06:10:23;;;;;;;7.88;4.00;;;20.70;65.10;;;;;;5054232;28;20608;-61
2023/07/31 06:12:49;;;;;;;6.63;4.72;;;20.80;65.20;;;;;;5055080;28;20186;-61
2023/07/31 06:15:14;;;;;;;8.18;4.50;;;20.70;65.10;;;;;;5054104;28;20175;-61
2023/07/31 06:17:41;;;;;;;7.90;4.25;;;20.70;65.10;;;;;;5054071;28;20183;-61
2023/07/31 06:20:07;;;;;;;7.28;4.40;;;20.70;65.10;;;;;;5054500;28;20220;-61
2023/07/31 06:22:32;;;;;;;5.60;3.92;;;20.70;65.10;;;;;;5054825;28;20214;-61
2023/07/31 06:24:58;;;;;;;9.57;4.65;;;20.70;65.20;;;;;;5053877;28;20656;-61
2023/07/31 06:27:24;;;;;;;5.03;3.53;;;20.70;66.00;;;;;;5054641;28;20657;-60
2023/07/31 06:29:49;;;;;;;6.28;3.97;;;20.70;65.20;;;;;;5054403;28;20171;-61
2023/07/31 06:32:15;;;;;;;6.18;4.43;;;20.70;65.20;;;;;;5053544;28;20323;-61
2023/07/31 06:34:40;;;;;;;6.15;4.55;;;20.70;65.20;;;;;;5053458;28;20684;-62
2023/07/31 06:37:06;;;;;;;7.15;4.13;;;20.70;65.20;;;;;;5054000;28;20175;-62
2023/07/31 06:39:31;;;;;;;5.25;4.15;;;20.70;65.20;;;;;;5053674;28;20262;-61
2023/07/31 06:41:57;;;;;;;6.90;4.05;;;20.70;65.20;;;;;;5053844;28;20238;-61
2023/07/31 06:44:22;;;;;;;5.63;3.67;;;20.70;65.20;;;;;;5054296;28;20630;-61
2023/07/31 06:46:48;;;;;;;6.30;3.95;;;20.70;65.30;;;;;;5053497;28;20539;-61
2023/07/31 06:49:15;;;;;;;6.15;3.80;;;20.70;65.40;;;;;;5053992;28;20220;-61
2023/07/31 06:51:41;;;;;;;4.50;3.30;;;20.70;65.40;;;;;;5054218;28;20167;-60
2023/07/31 06:54:07;;;;;;;5.72;3.92;;;20.70;65.40;;;;;;5052938;28;20184;-61
2023/07/31 06:56:32;;;;;;;7.00;4.50;;;20.70;65.50;;;;;;5053846;28;20665;-60
2023/07/31 06:58:58;;;;;;;5.85;4.05;;;20.70;65.50;;;;;;5053842;28;20175;-61
2023/07/31 07:01:24;;;;;;;5.47;4.00;;;20.70;65.40;;;;;;5052901;28;20670;-62
2023/07/31 07:03:50;;;;;;;7.35;3.78;;;20.70;65.50;;;;;;5053735;28;20340;-61
2023/07/31 07:06:17;;;;;;;7.15;3.88;;;20.70;65.50;;;;;;5053806;28;20183;-63
2023/07/31 07:08:43;;;;;;;8.13;4.68;;;20.70;65.50;;;;;;5053643;28;20272;-62
2023/07/31 07:11:11;;;;;;;6.05;3.95;;;20.70;65.50;;;;;;5053440;28;20266;-61
2023/07/31 07:13:36;;;;;;;9.95;4.47;;;20.70;65.60;;;;;;5053110;28;20214;-61
2023/07/31 07:16:02;;;;;;;13.60;4.90;;;20.70;66.00;;;;;;5053341;28;20195;-61
2023/07/31 07:18:27;;;;;;;7.88;3.90;;;20.70;65.70;;;;;;5053667;28;20199;-60
2023/07/31 07:20:53;;;;;;;5.55;3.75;;;20.70;65.60;;;;;;5052949;28;20596;-61
2023/07/31 07:23:19;;;;;;;8.63;3.97;;;20.80;65.70;;;;;;5053167;28;20183;-61
2023/07/31 07:25:45;;;;;;;8.30;3.63;;;20.70;66.10;;;;;;5052744;28;20274;-61
2023/07/31 07:28:10;;;;;;;5.90;3.95;;;20.70;66.60;;;;;;5052441;28;20175;-62
2023/07/31 07:30:36;;;;;;;8.65;3.70;;;20.70;66.40;;;;;;5053325;28;20254;-61
2023/07/31 07:33:02;;;;;;;6.15;3.67;;;20.80;66.40;;;;;;5052997;28;20179;-62
2023/07/31 07:35:27;;;;;;;7.10;4.05;;;20.80;66.30;;;;;;5052802;28;20203;-62
2023/07/31 07:37:53;;;;;;;5.85;3.60;;;20.70;66.30;;;;;;5053414;28;20179;-62
2023/07/31 07:40:19;;;;;;;8.00;3.55;;;20.70;66.50;;;;;;5053037;28;20630;-62
2023/07/31 07:42:45;;;;;;;5.47;3.13;;;20.70;66.30;;;;;;5052185;28;20233;-61
2023/07/31 07:45:10;;;;;;;7.70;3.70;;;20.70;66.40;;;;;;5052779;28;20175;-61
2023/07/31 07:47:36;;;;;;;6.28;3.15;;;20.70;66.50;;;;;;5053053;28;20171;-61
2023/07/31 07:50:01;;;;;;;5.22;3.10;;;20.70;66.40;;;;;;5052055;28;20183;-61
2023/07/31 07:52:27;;;;;;;5.55;3.40;;;20.70;66.40;;;;;;5053169;28;20183;-61
2023/07/31 07:54:52;;;;;;;6.28;3.22;;;20.70;66.30;;;;;;5052968;28;20172;-61
2023/07/31 07:57:18;;;;;;;5.18;3.05;;;20.70;66.40;;;;;;5051861;28;20641;-61
2023/07/31 07:59:44;;;;;;;4.82;3.10;;;20.70;67.20;;;;;;5052852;28;20537;-61
2023/07/31 08:02:09;;;;;;;6.03;2.83;;;20.70;66.60;;;;;;5052630;28;20276;-62
2023/07/31 08:04:35;;;;;;;5.63;2.63;;;20.70;66.40;;;;;;5052022;28;20171;-62
2023/07/31 08:07:00;;;;;;;5.78;2.80;;;20.60;66.30;;;;;;5052587;28;20367;-62
2023/07/31 08:09:26;;;;;;;4.90;3.17;;;20.70;67.40;;;;;;5052674;28;20198;-62
2023/07/31 08:11:51;;;;;;;4.40;2.72;;;20.70;66.40;;;;;;5051870;28;20171;-61
2023/07/31 08:14:17;;;;;;;5.45;2.53;;;20.70;67.40;;;;;;5052259;28;20179;-61
2023/07/31 08:16:42;;;;;;;3.47;2.97;;;20.70;66.60;;;;;;5052084;28;20257;-61
2023/07/31 08:19:08;;;;;;;5.28;2.83;;;20.70;66.50;;;;;;5052343;28;20199;-61
2023/07/31 08:21:33;;;;;;;4.50;2.80;;;20.70;66.60;;;;;;5052570;28;20211;-61
2023/07/31 08:23:59;;;;;;;4.25;2.83;;;20.70;66.60;;;;;;5051537;28;20220;-60
2023/07/31 08:26:24;;;;;;;5.90;2.95;;;20.70;66.40;;;;;;5052398;28;20171;-61
2023/07/31 08:28:50;;;;;;;2.88;2.45;;;20.70;66.50;;;;;;5052288;28;20183;-61
2023/07/31 08:31:15;;;;;;;3.15;2.20;;;20.70;66.50;;;;;;5051515;28;20237;-61
2023/07/31 08:33:41;;;;;;;4.10;2.70;;;20.70;66.50;;;;;;5052256;28;20237;-62
2023/07/31 08:36:07;;;;;;;4.05;2.78;;;20.70;66.70;;;;;;5052006;28;20171;-63
2023/07/31 08:38:32;;;;;;;4.13;2.25;;;20.70;66.70;;;;;;5051614;28;20190;-62
2023/07/31 08:40:58;;;;;;;3.58;2.38;;;20.70;66.90;;;;;;5051750;28;20317;-62
2023/07/31 08:43:27;;;;;;;3.50;2.40;;;20.70;67.90;;;;;;5052391;28;20258;-61
2023/07/31 08:45:55;;;;;;;4.00;3.00;;;20.70;67.10;;;;;;5051619;28;20194;-61
2023/07/31 08:48:24;;;;;;;4.00;2.38;;;20.70;66.90;;;;;;5050746;28;20179;-61
2023/07/31 08:50:51;;;;;;;2.40;1.90;;;20.70;67.00;;;;;;5051090;28;20178;-61
2023/07/31 08:53:17;;;;;;;3.70;2.17;;;20.80;67.30;;;;;;5051256;28;20206;-61
2023/07/31 08:55:42;;;;;;;4.20;2.30;;;20.80;67.40;;;;;;5050938;28;20297;-61
2023/07/31 08:58:08;;;;;;;2.67;2.03;;;20.70;67.20;;;;;;5051777;28;20258;-61
2023/07/31 09:00:34;;;;;;;3.25;2.00;;;20.70;67.30;;;;;;5050063;28;20261;-62
2023/07/31 09:03:02;;;;;;;3.33;2.22;;;20.80;67.50;;;;;;5033566;28;20206;-61
2023/07/31 09:05:28;;;;;;;3.63;1.83;;;20.80;67.40;;;;;;5052138;28;20179;-62
2023/07/31 09:07:54;;;;;;;3.30;2.35;;;20.80;67.60;;;;;;5049400;28;20182;-61
2023/07/31 09:10:22;;;;;;;2.53;1.92;;;20.80;67.50;;;;;;5050365;28;20167;-62
2023/07/31 09:12:49;;;;;;;4.55;2.42;;;20.80;67.20;;;;;;5051845;28;20258;-62
2023/07/31 09:15:14;;;;;;;3.15;2.10;;;20.80;67.30;;;;;;5050469;28;20176;-61
2023/07/31 09:17:40;;;;;;;3.22;2.10;;;20.80;66.80;;;;;;5051550;28;20581;-61
2023/07/31 09:20:19;;;;;;;7.82;2.80;;;20.80;67.10;;;;;;5050691;28;20171;-63
2023/07/31 09:22:45;;;;;;;2.72;1.92;;;20.80;67.10;;;;;;5048921;28;20198;-62
2023/07/31 09:25:21;;;;;;;5.20;2.42;;;20.80;67.30;;;;;;5051002;28;20167;-61
2023/07/31 09:27:54;;;;;;;5.07;2.08;;;20.80;67.60;;;;;;5050336;28;20588;-62
2023/07/31 09:30:19;;;;;;;2.92;2.15;;;20.80;67.70;;;;;;5053287;28;20178;-63
2023/07/31 09:32:47;;;;;;;3.17;1.95;;;20.80;67.60;;;;;;5051301;28;20258;-63
2023/07/31 09:35:31;;;;;;;5.57;1.90;;;20.80;67.70;;;;;;5050600;28;20180;-64
2023/07/31 09:38:03;;;;;;;3.30;2.03;;;20.80;67.60;;;;;;5067056;28;20181;-63
2023/07/31 09:40:29;;;;;;;5.63;2.00;;;20.80;67.70;;;;;;5051744;28;20203;-64
2023/07/31 09:43:00;;;;;;;4.10;1.70;;;20.90;67.80;;;;;;5051158;28;20230;-62
2023/07/31 09:45:25;;;;;;;2.72;1.80;;;20.80;67.80;;;;;;5059779;28;20254;-63
2023/07/31 09:47:51;;;;;;;1.90;1.60;;;20.80;67.80;;;;;;5061654;28;20270;-62
2023/07/31 09:50:17;;;;;;;3.28;1.67;;;20.80;67.80;;;;;;5053879;28;20178;-63
2023/07/31 09:52:42;;;;;;;2.33;1.50;;;20.80;68.00;;;;;;5055303;28;20664;-61
2023/07/31 09:55:09;;;;;;;4.10;1.63;;;20.80;67.90;;;;;;5052951;28;20697;-62
2023/07/31 09:57:35;;;;;;;3.58;2.10;;;20.80;68.00;;;;;;5055252;28;20182;-62
2023/07/31 10:00:00;;;;;;;3.13;1.80;;;20.80;67.90;;;;;;5054766;28;20692;-63
2023/07/31 10:02:26;;;;;;;2.30;1.73;;;20.80;67.90;;;;;;5060407;28;20209;-63
2023/07/31 10:04:52;;;;;;;1.70;1.60;;;20.80;68.00;;;;;;5073541;28;20622;-62
2023/07/31 10:07:18;;;;;;;1.88;1.60;;;20.80;67.80;;;;;;5074474;28;20677;-63
2023/07/31 10:09:43;;;;;;;2.95;1.80;;;20.90;67.90;;;;;;5074413;28;20178;-61
2023/07/31 10:12:09;;;;;;;2.38;2.05;;;20.80;67.60;;;;;;5074839;28;20271;-61
2023/07/31 10:14:35;;;;;;;1.75;1.60;;;20.90;68.20;;;;;;5057119;28;20186;-62
2023/07/31 10:17:00;;;;;;;3.08;1.95;;;20.80;67.90;;;;;;5072551;28;20174;-61
2023/07/31 10:19:26;;;;;;;2.00;1.80;;;20.80;67.90;;;;;;5074926;28;20182;-61
2023/07/31 10:21:52;;;;;;;1.92;1.83;;;20.90;67.70;;;;;;5073691;28;20214;-61
2023/07/31 10:24:18;;;;;;;3.17;1.83;;;20.90;67.80;;;;;;5049401;28;20519;-62
2023/07/31 10:26:45;;;;;;;2.92;2.00;;;20.90;67.90;;;;;;5053237;28;20179;-62
2023/07/31 10:29:11;;;;;;;1.77;1.60;;;20.80;67.80;;;;;;5054212;28;20578;-62
2023/07/31 10:31:37;;;;;;;3.83;1.70;;;20.90;67.90;;;;;;5052562;28;20265;-62
2023/07/31 10:34:03;;;;;;;3.85;1.98;;;20.90;67.60;;;;;;5052931;28;20260;-63
2023/07/31 10:36:28;;;;;;;1.95;1.75;;;20.90;67.60;;;;;;5053195;28;20205;-61
2023/07/31 10:38:55;;;;;;;2.95;2.15;;;20.90;67.90;;;;;;5053782;28;20179;-61
2023/07/31 10:41:29;;;;;;;3.05;1.98;;;21.00;68.00;;;;;;5052933;28;20234;-61
2023/07/31 10:43:58;;;;;;;2.95;1.55;;;21.00;67.90;;;;;;5052874;28;20549;-61
2023/07/31 10:46:23;;;;;;;2.75;1.98;;;21.00;67.70;;;;;;5053298;28;20171;-63
2023/07/31 10:49:00;;;;;;;4.07;2.03;;;21.00;67.80;;;;;;5052893;28;20195;-64
2023/07/31 10:51:35;;;;;;;3.90;2.45;;;21.00;67.70;;;;;;5052248;28;20206;-61
2023/07/31 10:54:15;;;;;;;2.45;2.00;;;21.00;67.80;;;;;;5053732;28;20183;-61
2023/07/31 10:56:40;;;;;;;4.15;2.08;;;21.00;67.80;;;;;;5053031;28;20186;-62
2023/07/31 10:59:06;;;;;;;2.88;2.30;;;21.00;68.10;;;;;;5051685;28;20171;-62
2023/07/31 11:01:51;;;;;;;4.05;2.05;;;21.00;67.90;;;;;;5054057;28;20260;-62
2023/07/31 11:04:23;;;;;;;6.63;2.17;;;21.00;67.70;;;;;;5053846;28;20270;-62
2023/07/31 11:06:59;;;;;;;3.72;2.40;;;21.10;67.70;;;;;;5053176;28;20258;-62
2023/07/31 11:09:30;;;;;;;2.95;2.40;;;21.10;67.60;;;;;;5053823;28;20582;-63
2023/07/31 11:11:55;;;;;;;2.45;2.20;;;21.10;67.80;;;;;;5052511;28;20274;-63
2023/07/31 11:14:21;;;;;;;2.70;2.33;;;21.10;67.80;;;;;;5053059;28;20171;-63
2023/07/31 11:16:49;;;;;;;5.53;2.53;;;21.00;67.90;;;;;;5053652;28;20178;-63
2023/07/31 11:19:14;;;;;;;4.15;2.10;;;21.00;67.90;;;;;;5052045;28;20538;-63
2023/07/31 11:21:40;;;;;;;2.97;1.83;;;21.10;68.00;;;;;;5052635;28;20210;-62
2023/07/31 11:24:05;;;;;;;5.43;2.70;;;21.10;68.10;;;;;;5053188;28;20175;-60
2023/07/31 11:26:31;;;;;;;2.50;2.25;;;21.10;68.10;;;;;;5052230;28;20171;-60
2023/07/31 11:28:57;;;;;;;4.25;2.20;;;21.10;68.10;;;;;;5052992;28;20577;-61
2023/07/31 11:31:22;;;;;;;3.30;2.47;;;21.10;68.10;;;;;;5053433;28;20179;-62
2023/07/31 11:33:48;;;;;;;4.15;2.45;;;21.10;68.30;;;;;;5052603;28;20178;-61
2023/07/31 11:36:17;;;;;;;6.28;2.83;;;21.10;68.20;;;;;;5052988;28;20175;-61
2023/07/31 11:38:43;;;;;;;4.90;2.55;;;21.10;68.30;;;;;;5052979;28;20542;-60
2023/07/31 11:41:09;;;;;;;6.40;2.17;;;21.10;69.20;;;;;;5051236;28;20236;-60
2023/07/31 11:43:36;;;;;;;4.38;2.80;;;21.10;68.40;;;;;;5052148;28;20190;-61
2023/07/31 11:46:06;;;;;;;3.65;2.55;;;21.10;68.30;;;;;;5051703;28;20250;-61
2023/07/31 11:48:35;;;;;;;3.25;2.30;;;21.10;68.30;;;;;;5050805;28;20249;-60
2023/07/31 11:51:02;;;;;;;6.63;3.20;;;21.10;68.40;;;;;;5052140;28;20591;-60
2023/07/31 11:53:50;;;;;;;4.47;2.70;;;21.10;68.40;;;;;;5052762;28;20179;-60
2023/07/31 11:56:17;;;;;;;5.03;2.53;;;21.10;68.30;;;;;;5050950;28;20464;-60
2023/07/31 11:58:43;;;;;;;5.35;2.47;;;21.10;68.30;;;;;;5051773;28;20264;-60
2023/07/31 12:01:08;;;;;;;3.83;2.67;;;21.10;68.30;;;;;;5050341;28;20198;-60
2023/07/31 12:03:34;;;;;;;4.20;2.53;;;21.10;68.30;;;;;;5050847;28;20626;-61
2023/07/31 12:05:59;;;;;;;4.10;2.30;;;21.10;68.30;;;;;;5050892;28;20172;-61
2023/07/31 12:08:25;;;;;;;3.97;2.42;;;21.10;68.40;;;;;;5051920;28;20202;-60
2023/07/31 12:10:54;;;;;;;4.47;2.67;;;21.10;68.50;;;;;;5051703;28;20658;-61
2023/07/31 12:13:21;;;;;;;5.03;2.70;;;21.10;68.60;;;;;;5051910;28;20175;-61
2023/07/31 12:15:47;;;;;;;4.28;2.40;;;21.10;68.30;;;;;;5052133;28;20190;-60
2023/07/31 12:18:14;;;;;;;5.65;2.55;;;21.10;68.30;;;;;;5060720;28;20179;-61
2023/07/31 12:20:47;;;;;;;5.43;2.28;;;21.10;68.10;;;;;;5061900;28;20224;-60
2023/07/31 12:23:28;;;;;;;4.72;2.78;;;21.10;68.20;;;;;;5071413;28;20263;-60
2023/07/31 12:26:11;;;;;;;2.88;2.20;;;21.10;68.10;;;;;;5054836;28;20253;-61
2023/07/31 12:28:49;;;;;;;4.30;2.30;;;21.10;68.00;;;;;;5051613;28;20183;-61
2023/07/31 12:31:17;;;;;;;5.88;2.75;;;21.00;68.10;;;;;;5051275;28;20725;-61
2023/07/31 12:33:43;;;;;;;5.78;2.65;;;21.00;68.90;;;;;;5064021;28;20218;-62
2023/07/31 12:36:12;;;;;;;2.72;2.00;;;21.00;68.00;;;;;;5072047;28;20201;-61
2023/07/31 12:38:38;;;;;;;2.72;2.47;;;21.00;68.00;;;;;;5071623;28;20208;-61
2023/07/31 12:41:04;;;;;;;3.25;2.50;;;21.00;67.90;;;;;;5071609;28;20226;-61
2023/07/31 12:43:30;;;;;;;2.78;2.20;;;21.00;67.80;;;;;;5072067;28;20541;-61
2023/07/31 12:45:56;;;;;;;3.10;2.47;;;21.00;67.80;;;;;;5071366;28;20170;-61